Finchley, United Kingdom
Current Conditions -  °F | °C
As of 4:50 AM on Tuesday 21 Oct 2014 (Local Time) from EGWU Reporting Station
Broken Clouds Broken Clouds  
Wind Chill: 55°   Ceiling: 1800
Heat Index: 55°   Visibility: 4mi
Dew Point: 52°   Wind: 15mph
Humidity: 88%   Direction: 230°SW
Pressure: 29.65"   Gusts: 26mph
Location:  51.6°N, 0.19°W
Report Text: EGWU 210350Z AUTO 23013G23KT 7000 // BKN018/// 13/11 Q1004
Loading
Personal Weather Stations






























Interactive Weather Map
Tropical Storm Tracking
New forecast layout! Learn more

10-Day Weather Forecast

Advertisements
Track Severe Weather on mobile